Scan Trans — JXGT — position and weather

sailwx.info

Track history (hours):
 
Tides and Currents Weather Stations Pressure Air Temp Water Temp Dewpoint Dewpoint Depression Visibility Wind Speed Wind Dir Waves Ship Positions

Scan Trans

Last reported at 2018-Jul-23 04:00 UTC. Time now 2018-Jul-23 04:06 UTC.
Position N 63°52' E 009°41'.

Length 52 m; draft 4 m.

Type: Ship. MMSI: 257228000.

Date/timePositionNaut miles runAvg speedWind from/ knotsBaromVisibWave heightAir tempDewpointWater temp
2018-Jul-23 04:00N 63°52' E 009°41'4 8.7
2018-Jul-23 03:29N 63°54' E 009°50'4 9.2
2018-Jul-23 03:00N 63°58' E 009°55'5 9.2
2018-Jul-23 02:30N 64°02' E 010°00'4 7.3
2018-Jul-23 02:00N 64°05' E 010°01'4 8.9
2018-Jul-23 01:30N 64°09' E 010°07'4 8.9
2018-Jul-23 01:00N 64°13' E 010°12'4 8.7
2018-Jul-23 00:30N 64°16' E 010°19'5 9.2
2018-Jul-23 00:00N 64°20' E 010°21'5 9.3
2018-Jul-22 23:30N 64°24' E 010°26'4 8.9
2018-Jul-22 23:00N 64°28' E 010°30'5 9.3
2018-Jul-22 22:30N 64°32' E 010°37'5 9.4
2018-Jul-22 22:00N 64°36' E 010°45'5 9.9
2018-Jul-22 21:30N 64°38' E 010°54'510.1
2018-Jul-22 21:00N 64°40' E 011°05'510.1
2018-Jul-22 20:30N 64°42' E 011°16'510.1
2018-Jul-22 20:00N 64°44' E 011°27'3 5.5
2018-Jul-22 19:30N 64°45' E 011°33'1 2.6
2018-Jul-22 19:00N 64°45' E 011°30'2 3.7
2018-Jul-22 18:30N 64°43' E 011°28'1 1.5
2018-Jul-22 18:00N 64°43' E 011°26'510.2
2018-Jul-22 17:29N 64°43' E 011°14'4 7.3
2018-Jul-22 17:00N 64°45' E 011°06'5 9.0
2018-Jul-22 16:30N 64°49' E 011°09'5 9.2
2018-Jul-22 16:00N 64°52' E 011°17'4 3.7
2018-Jul-22 15:00N 64°56' E 011°16'1 1.9
2018-Jul-22 14:30N 64°55' E 011°15'0 0.0
2018-Jul-22 14:00N 64°55' E 011°15'3 6.6
2018-Jul-22 13:30N 64°58' E 011°18'510.4
2018-Jul-22 13:00N 65°00' E 011°29'610.9
2018-Jul-22 12:30N 65°02' E 011°41'510.5
2018-Jul-22 12:00N 65°07' E 011°48'510.6
2018-Jul-22 11:30N 65°12' E 011°52'510.7
2018-Jul-22 11:00N 65°17' E 011°57'510.6
2018-Jul-22 10:30N 65°21' E 012°04'510.5
2018-Jul-22 10:00N 65°26' E 012°09'4 8.2
2018-Jul-22 09:29N 65°30' E 012°12'510.2
2018-Jul-22 09:00N 65°35' E 012°14'510.4
2018-Jul-22 08:30N 65°40' E 012°16'510.3
2018-Jul-22 08:00N 65°45' E 012°18'510.2
2018-Jul-22 07:29N 65°50' E 012°21'510.1
2018-Jul-22 07:00N 65°55' E 012°23'510.2
2018-Jul-22 06:30N 65°59' E 012°29'4 8.3
2018-Jul-22 06:00N 66°01' E 012°38'2 4.7
2018-Jul-22 05:29N 66°04' E 012°39'5 9.3
2018-Jul-22 04:59N 66°08' E 012°46'5 9.3
2018-Jul-22 04:30N 66°12' E 012°51'5 9.4
2018-Jul-22 04:00N 66°16' E 012°55'5 9.7
2018-Jul-22 03:30N 66°21' E 012°57'5 9.5
2018-Jul-22 03:00N 66°25' E 012°58'5 9.3
2018-Jul-22 02:30N 66°30' E 012°59'4 8.5
2018-Jul-22 02:00N 66°34' E 013°04'5 9.2
2018-Jul-22 01:30N 66°38' E 013°06'5 9.3
2018-Jul-22 01:00N 66°43' E 013°10'5 9.6
2018-Jul-22 00:30N 66°47' E 013°15'5 9.4
2018-Jul-22 00:00N 66°51' E 013°20'5 9.4
2018-Jul-21 23:30N 66°55' E 013°28'4 8.1
2018-Jul-21 23:01N 66°58' E 013°33'5 9.3
2018-Jul-21 22:30N 67°01' E 013°43'5 9.2
2018-Jul-21 22:00N 67°04' E 013°52'5 9.5
2018-Jul-21 21:30N 67°07' E 014°00'5 9.2
2018-Jul-21 21:01N 67°11' E 014°05'5 9.3
2018-Jul-21 20:31N 67°15' E 014°12'5 9.5
2018-Jul-21 20:01N 67°19' E 014°19'5 9.4
2018-Jul-21 19:31N 67°23' E 014°25'5 9.2
2018-Jul-21 19:00N 67°28' E 014°28'5 9.4
2018-Jul-21 18:30N 67°32' E 014°30'5 9.3
2018-Jul-21 18:00N 67°37' E 014°30'5 9.3
2018-Jul-21 17:30N 67°42' E 014°31'5 9.3
2018-Jul-21 17:00N 67°46' E 014°32'4 8.5
2018-Jul-21 16:30N 67°50' E 014°37'4 8.6
2018-Jul-21 16:00N 67°53' E 014°44'4 8.7
2018-Jul-21 15:30N 67°57' E 014°50'5 9.2
2018-Jul-21 14:59N 68°01' E 014°59'5 9.2
2018-Jul-21 14:29N 68°04' E 015°08'9 9.4
2018-Jul-21 13:29N 68°10' E 015°26'5 9.6
2018-Jul-21 13:00N 68°13' E 015°35'5 9.4
2018-Jul-21 12:30N 68°17' E 015°44'5 9.6
2018-Jul-21 12:00N 68°20' E 015°53'5 9.6
2018-Jul-21 11:30N 68°24' E 016°01'5 9.6
2018-Jul-21 11:00N 68°28' E 016°06'510.0
2018-Jul-21 10:30N 68°33' E 016°13'5 9.7
2018-Jul-21 10:00N 68°33' E 016°26'4 7.9
2018-Jul-21 09:30N 68°36' E 016°33'4 8.8
2018-Jul-21 09:00N 68°40' E 016°39'5 9.3
2018-Jul-21 08:30N 68°45' E 016°45'5 9.2
2018-Jul-21 08:00N 68°48' E 016°51'5 9.4
2018-Jul-21 07:31N 68°52' E 016°59'5 9.3
2018-Jul-21 07:00N 68°56' E 017°06'5 9.5
2018-Jul-21 06:30N 68°60' E 017°14'5 9.8
2018-Jul-21 06:00N 69°04' E 017°22'5 9.6
2018-Jul-21 05:30N 69°06' E 017°33'510.0
2018-Jul-21 05:01N 69°09' E 017°46'5 9.8
2018-Jul-21 04:30N 69°11' E 017°58'4 7.8
2018-Jul-21 04:00N 69°15' E 017°58'5 9.4
2018-Jul-21 03:30N 69°19' E 017°60'5 9.3
2018-Jul-21 02:59N 69°24' E 018°06'5 9.5
2018-Jul-21 02:30N 69°28' E 018°08'5 9.3
2018-Jul-21 02:00N 69°30' E 018°20'5 9.6
2018-Jul-21 01:30N 69°32' E 018°32'5 9.1
2018-Jul-21 00:59N 69°34' E 018°45'5 9.7
2018-Jul-21 00:30N 69°37' E 018°54'5 9.4
2018-Jul-21 00:00N 69°41' E 019°01'510.0
2018-Jul-20 23:29N 69°45' E 019°09'510.4
2018-Jul-20 23:01N 69°48' E 019°22'510.2
2018-Jul-20 22:30N 69°50' E 019°36'510.3
2018-Jul-20 22:00N 69°52' E 019°49'510.3
2018-Jul-20 21:30N 69°55' E 020°01'510.6
2018-Jul-20 21:00N 69°58' E 020°13'510.0
2018-Jul-20 20:30N 70°00' E 020°26'510.2
2018-Jul-20 20:00N 70°02' E 020°41'5 9.7
2018-Jul-20 19:30N 70°03' E 020°54'5 9.4
2018-Jul-20 19:00N 70°02' E 021°08'5 9.2
2018-Jul-20 18:30N 70°02' E 021°21'4 8.6
2018-Jul-20 18:00N 69°59' E 021°31'10 6.2
2018-Jul-20 16:21N 69°51' E 021°50'410.4
2018-Jul-20 15:59N 69°54' E 021°42'510.1
2018-Jul-20 15:31N 69°58' E 021°34'611.1
2018-Jul-20 15:00N 70°03' E 021°24'510.7
2018-Jul-20 14:30N 70°07' E 021°15'510.5
2018-Jul-20 14:00N 70°12' E 021°10'5 9.3
2018-Jul-20 13:30N 70°16' E 021°17'510.2
2018-Jul-20 12:59N 70°20' E 021°28'510.1
2018-Jul-20 12:30N 70°23' E 021°38'5 9.9
2018-Jul-20 12:00N 70°25' E 021°52'510.2
2018-Jul-20 11:29N 70°27' E 022°07'510.1
2018-Jul-20 11:00N 70°28' E 022°21'510.2
2018-Jul-20 10:29N 70°29' E 022°36'510.7
2018-Jul-20 10:00N 70°30' E 022°51'5 9.9
2018-Jul-20 09:31N 70°33' E 023°04'5 9.6
2018-Jul-20 08:59N 70°36' E 023°15'510.0
2018-Jul-20 08:30N 70°39' E 023°29'4 8.5
2018-Jul-20 07:59N 70°40' E 023°41'0 0.0
2018-Jul-20 07:29N 70°40' E 023°41'0 0.0
2018-Jul-20 06:59N 70°40' E 023°41'0 0.0
2018-Jul-20 06:29N 70°40' E 023°41'0 0.0
2018-Jul-20 05:59N 70°40' E 023°41'0 0.0
2018-Jul-20 05:29N 70°40' E 023°41'0 0.0
2018-Jul-20 04:59N 70°40' E 023°41'0 0.0
2018-Jul-20 04:29N 70°40' E 023°41'0 0.0
2018-Jul-20 03:59N 70°40' E 023°41'0 0.0
2018-Jul-20 03:29N 70°40' E 023°41'0 0.0
2018-Jul-20 02:59N 70°40' E 023°41'0 0.0
2018-Jul-20 02:29N 70°40' E 023°41'0 0.0
2018-Jul-20 01:59N 70°40' E 023°41'0 0.0
2018-Jul-20 01:29N 70°40' E 023°41'0 0.0
2018-Jul-20 00:59N 70°40' E 023°41'0 0.0
2018-Jul-20 00:29N 70°40' E 023°41'0 0.0
2018-Jul-19 23:56N 70°40' E 023°41'0 0.0
2018-Jul-19 23:29N 70°40' E 023°41'0 0.0
2018-Jul-19 22:59N 70°40' E 023°41'0 0.0
2018-Jul-19 22:29N 70°40' E 023°41'0 0.0
2018-Jul-19 21:59N 70°40' E 023°41'0 0.0
2018-Jul-19 21:29N 70°40' E 023°41'0 0.0
2018-Jul-19 20:59N 70°40' E 023°41'0 0.0
2018-Jul-19 20:29N 70°40' E 023°41'0 0.0
2018-Jul-19 19:56N 70°40' E 023°41'0 0.0
2018-Jul-19 19:29N 70°40' E 023°41'0 0.0
2018-Jul-19 18:59N 70°40' E 023°41'0 0.0
2018-Jul-19 18:29N 70°40' E 023°41'0 0.0
2018-Jul-19 17:59N 70°40' E 023°41'0 0.0
2018-Jul-19 17:29N 70°40' E 023°41'0 0.0
2018-Jul-19 16:59N 70°40' E 023°41'0 0.0
2018-Jul-19 16:29N 70°40' E 023°41'0 0.0
2018-Jul-19 15:59N 70°40' E 023°41'0 0.0
2018-Jul-19 15:29N 70°40' E 023°41'0 0.0
2018-Jul-19 14:59N 70°40' E 023°41'0 0.0
2018-Jul-19 13:59N 70°40' E 023°41'0 0.0
2018-Jul-19 13:29N 70°40' E 023°41'0 0.0
2018-Jul-19 12:59N 70°40' E 023°41'0 0.0
2018-Jul-19 12:29N 70°40' E 023°41'0 0.0
2018-Jul-19 11:59N 70°40' E 023°41'0 0.0
2018-Jul-19 11:29N 70°40' E 023°41'0 0.0
2018-Jul-19 10:59N 70°40' E 023°41'0 0.0
2018-Jul-19 10:29N 70°40' E 023°41'0 0.0
2018-Jul-19 09:59N 70°40' E 023°41'0 0.0
2018-Jul-19 09:29N 70°40' E 023°41'0 0.0
2018-Jul-19 08:59N 70°40' E 023°41'0 0.0
2018-Jul-19 08:29N 70°40' E 023°41'0 0.0
2018-Jul-19 07:59N 70°40' E 023°41'0 0.0
2018-Jul-19 07:29N 70°40' E 023°41'0 0.0
2018-Jul-19 06:59N 70°40' E 023°41'0 0.0
2018-Jul-19 06:29N 70°40' E 023°41'0 0.0
2018-Jul-19 05:59N 70°40' E 023°41'0 0.0
2018-Jul-19 05:29N 70°40' E 023°41'0 0.0
2018-Jul-19 04:59N 70°40' E 023°41'0 0.0
2018-Jul-19 04:29N 70°40' E 023°41'0 0.0
2018-Jul-19 03:59N 70°40' E 023°41'0 0.0
2018-Jul-19 03:29N 70°40' E 023°41'0 0.0
2018-Jul-19 02:59N 70°40' E 023°41'0 0.0
2018-Jul-19 02:29N 70°40' E 023°41'0 0.0
2018-Jul-19 01:59N 70°40' E 023°41'0 0.0
2018-Jul-19 01:29N 70°40' E 023°41'0 0.0
2018-Jul-19 00:59N 70°40' E 023°41'0 0.0
2018-Jul-19 00:29N 70°40' E 023°41'0 0.0
2018-Jul-18 23:59N 70°40' E 023°41'0 0.0
2018-Jul-18 23:28N 70°40' E 023°41'3 6.4
2018-Jul-18 23:00N 70°37' E 023°36'5 9.6
2018-Jul-18 22:30N 70°33' E 023°40'5 9.8
2018-Jul-18 22:00N 70°30' E 023°52'510.5
2018-Jul-18 21:29N 70°34' E 024°03'1 1.2
2018-Jul-18 21:00N 70°34' E 024°04'3 5.1
2018-Jul-18 20:31N 70°32' E 024°01'510.3
2018-Jul-18 20:00N 70°29' E 023°48'510.9
2018-Jul-18 19:30N 70°25' E 023°38'611.0
2018-Jul-18 19:00N 70°21' E 023°27'510.7
2018-Jul-18 18:30N 70°17' E 023°16'510.3
2018-Jul-18 18:00N 70°14' E 023°03'510.3
2018-Jul-18 17:30N 70°14' E 022°47'510.6
2018-Jul-18 17:01N 70°15' E 022°32'5 9.0
2018-Jul-18 16:30N 70°15' E 022°19'510.6
2018-Jul-18 16:00N 70°09' E 022°18'0 1.0
2018-Jul-18 15:30N 70°09' E 022°19'3 5.7
2018-Jul-18 15:01N 70°12' E 022°18'5 9.1
2018-Jul-18 14:30N 70°16' E 022°24'1110.7
2018-Jul-18 13:30N 70°13' E 022°55'4 7.9
2018-Jul-18 13:00N 70°09' E 022°56'1 1.7
2018-Jul-18 12:30N 70°08' E 022°54'3 5.5
2018-Jul-18 12:00N 70°08' E 023°02'510.5
2018-Jul-18 11:29N 70°03' E 023°07'5 4.9
2018-Jul-18 10:30N 69°59' E 023°15'2 3.8
2018-Jul-18 10:00N 69°59' E 023°20'0 0.0
2018-Jul-18 09:30N 69°59' E 023°20'0 0.0
2018-Jul-18 09:00N 69°59' E 023°20'0 0.0
2018-Jul-18 08:30N 69°59' E 023°20'0 0.0
2018-Jul-18 08:00N 69°59' E 023°20'0 0.0
2018-Jul-18 07:30N 69°59' E 023°20'0 0.0
2018-Jul-18 07:00N 69°59' E 023°20'0 0.0
2018-Jul-18 06:30N 69°59' E 023°20'0 0.0
2018-Jul-18 06:00N 69°59' E 023°20'0 0.0
2018-Jul-18 05:30N 69°59' E 023°20'0 0.0
2018-Jul-18 05:00N 69°59' E 023°20'0 0.0
2018-Jul-18 04:30N 69°59' E 023°20'0 0.0
2018-Jul-18 04:00N 69°59' E 023°20'0 0.0
2018-Jul-18 03:30N 69°59' E 023°20'0 0.0
2018-Jul-18 03:00N 69°59' E 023°20'0 0.0
2018-Jul-18 02:30N 69°59' E 023°20'0 0.0
2018-Jul-18 02:00N 69°59' E 023°20'0 0.0
2018-Jul-18 01:30N 69°59' E 023°20'0 0.0
2018-Jul-18 01:00N 69°59' E 023°20'0 0.0
2018-Jul-18 00:30N 69°59' E 023°20'0 0.0
2018-Jul-18 00:00N 69°59' E 023°20'0 0.0
2018-Jul-17 23:30N 69°59' E 023°20'0 0.0
2018-Jul-17 23:00N 69°59' E 023°20'0 0.0
2018-Jul-17 22:30N 69°59' E 023°20'0 0.0
2018-Jul-17 22:00N 69°59' E 023°20'0 0.0
2018-Jul-17 21:30N 69°59' E 023°20'0 0.0
2018-Jul-17 21:00N 69°59' E 023°20'0 0.0
2018-Jul-17 20:30N 69°59' E 023°20'0 0.0
2018-Jul-17 20:00N 69°59' E 023°20'0 0.0
2018-Jul-17 19:30N 69°59' E 023°20'0 0.0
2018-Jul-17 19:00N 69°59' E 023°20'0 0.0
2018-Jul-17 18:30N 69°59' E 023°20'0 0.0
2018-Jul-17 18:00N 69°59' E 023°20'0 0.0
2018-Jul-17 17:30N 69°59' E 023°20'0 0.0
2018-Jul-17 17:00N 69°59' E 023°20'0 0.0
2018-Jul-17 16:30N 69°59' E 023°20'0 0.0
2018-Jul-17 16:00N 69°59' E 023°20'0 0.0
2018-Jul-17 15:30N 69°59' E 023°20'0 0.0
2018-Jul-17 15:00N 69°59' E 023°20'0 0.0
2018-Jul-17 14:30N 69°59' E 023°20'0 0.0
2018-Jul-17 14:00N 69°59' E 023°20'0 0.0
2018-Jul-17 13:29N 69°59' E 023°20'0 0.0
2018-Jul-17 13:00N 69°59' E 023°20'0 0.0
2018-Jul-17 12:30N 69°59' E 023°20'0 0.0
2018-Jul-17 12:00N 69°59' E 023°20'0 0.0
2018-Jul-17 11:30N 69°59' E 023°20'0 0.0
2018-Jul-17 10:59N 69°59' E 023°20'0 0.0
2018-Jul-17 10:31N 69°59' E 023°20'0 0.0
2018-Jul-17 10:00N 69°59' E 023°20'0 0.0
2018-Jul-17 09:30N 69°59' E 023°20'0 0.0
2018-Jul-17 09:00N 69°59' E 023°20'0 0.0
2018-Jul-17 08:30N 69°59' E 023°20'0 0.0
2018-Jul-17 08:00N 69°59' E 023°20'0 0.0
2018-Jul-17 07:30N 69°59' E 023°20'0 0.0
2018-Jul-17 07:00N 69°59' E 023°20'0 0.0
2018-Jul-17 06:30N 69°59' E 023°20'0 0.0
2018-Jul-17 06:00N 69°59' E 023°20'0 0.3
2018-Jul-17 05:29N 69°59' E 023°20'0 0.0
2018-Jul-17 05:00N 69°59' E 023°20'0 0.0
2018-Jul-17 04:30N 69°59' E 023°20'0 0.0
2018-Jul-17 04:00N 69°59' E 023°20'0 0.0
2018-Jul-17 03:30N 69°59' E 023°20'0 0.0
2018-Jul-17 03:00N 69°59' E 023°20'0 0.0
2018-Jul-17 02:30N 69°59' E 023°20'0 0.0
2018-Jul-17 02:00N 69°59' E 023°20'0 0.0
2018-Jul-17 01:30N 69°59' E 023°20'0 0.0
2018-Jul-17 00:58N 69°59' E 023°20'0 0.0
2018-Jul-17 00:29N 69°59' E 023°20'0 0.0
2018-Jul-16 23:30N 69°59' E 023°20'0 0.0
2018-Jul-16 23:00N 69°59' E 023°20'0 0.0
2018-Jul-16 22:30N 69°59' E 023°20'0 0.0
2018-Jul-16 22:00N 69°59' E 023°20'0 0.0
2018-Jul-16 21:29N 69°59' E 023°20'0 0.0
2018-Jul-16 21:00N 69°59' E 023°20'0 0.0
2018-Jul-16 20:30N 69°59' E 023°20'0 0.0
2018-Jul-16 20:00N 69°59' E 023°20'0 0.0
2018-Jul-16 19:31N 69°59' E 023°20'3 5.2
2018-Jul-16 19:00N 69°59' E 023°12'3 5.7
2018-Jul-16 18:30N 69°57' E 023°06'0 0.0
2018-Jul-16 18:00N 69°57' E 023°06'0 0.0
2018-Jul-16 17:28N 69°57' E 023°06'0 0.0
2018-Jul-16 17:00N 69°57' E 023°06'0 0.0
2018-Jul-16 16:30N 69°57' E 023°06'0 0.0
2018-Jul-16 16:00N 69°57' E 023°06'0 0.0
2018-Jul-16 15:30N 69°57' E 023°06'0 0.0
2018-Jul-16 14:59N 69°57' E 023°06'0 0.0
2018-Jul-16 14:30N 69°57' E 023°06'0 0.0
2018-Jul-16 14:00N 69°57' E 023°06'4 7.5
2018-Jul-16 13:30N 70°00' E 023°09'511.0
2018-Jul-16 13:00N 70°06' E 023°06'510.6
2018-Jul-16 12:30N 70°11' E 023°04'510.5
2018-Jul-16 12:00N 70°16' E 023°03'5 9.8
2018-Jul-16 11:30N 70°21' E 023°05'0 0.0
2018-Jul-16 11:00N 70°21' E 023°05'4 7.6
2018-Jul-16 10:30N 70°17' E 023°03'5 9.9
2018-Jul-16 10:00N 70°14' E 023°15'3 6.2
2018-Jul-16 09:30N 70°14' E 023°24'2 4.3
2018-Jul-16 09:00N 70°14' E 023°18'4 7.5
2018-Jul-16 08:30N 70°18' E 023°20'510.4
2018-Jul-16 08:00N 70°22' E 023°30'611.3
2018-Jul-16 07:30N 70°26' E 023°40'510.3
2018-Jul-16 06:59N 70°30' E 023°52'510.7
2018-Jul-16 06:31N 70°34' E 024°03'0 0.1
2018-Jul-16 06:00N 70°34' E 024°03'5 9.3
2018-Jul-16 05:30N 70°30' E 023°53'5 9.5
2018-Jul-16 04:59N 70°32' E 023°40'5 9.6
2018-Jul-16 04:29N 70°37' E 023°36'3 6.7
2018-Jul-16 03:58N 70°40' E 023°41'0 0.0
2018-Jul-16 03:30N 70°40' E 023°41'0 0.0
2018-Jul-16 03:00N 70°40' E 023°41'0 0.0
2018-Jul-16 02:30N 70°40' E 023°41'0 0.0
2018-Jul-16 02:00N 70°40' E 023°41'0 0.0
2018-Jul-16 01:30N 70°40' E 023°41'0 0.0
2018-Jul-16 01:00N 70°40' E 023°41'0 0.0
2018-Jul-16 00:29N 70°40' E 023°41'0 0.0
2018-Jul-15 23:59N 70°40' E 023°41'0 0.0
2018-Jul-15 23:30N 70°40' E 023°41'0 0.0
2018-Jul-15 23:00N 70°40' E 023°41'0 0.0
2018-Jul-15 22:30N 70°40' E 023°41'0 0.0
2018-Jul-15 22:00N 70°40' E 023°41'0 0.0
2018-Jul-15 21:30N 70°40' E 023°41'0 0.0
2018-Jul-15 21:00N 70°40' E 023°41'0 0.0
2018-Jul-15 20:30N 70°40' E 023°41'0 0.0
2018-Jul-15 20:00N 70°40' E 023°41'0 0.0
2018-Jul-15 19:30N 70°40' E 023°41'0 0.0
2018-Jul-15 18:59N 70°40' E 023°41'0 0.0
2018-Jul-15 18:29N 70°40' E 023°41'0 0.0
2018-Jul-15 17:59N 70°40' E 023°41'0 0.0
2018-Jul-15 17:29N 70°40' E 023°41'0 0.0
2018-Jul-15 16:58N 70°40' E 023°41'0 0.0
2018-Jul-15 16:30N 70°40' E 023°41'0 0.0
2018-Jul-15 15:59N 70°40' E 023°41'0 0.0
2018-Jul-15 15:29N 70°40' E 023°41'0 0.0
2018-Jul-15 15:00N 70°40' E 023°41'0 0.0
2018-Jul-15 14:30N 70°40' E 023°41'0 0.0
2018-Jul-15 14:00N 70°40' E 023°41'0 0.0
2018-Jul-15 13:30N 70°40' E 023°41'0 0.0
2018-Jul-15 13:00N 70°40' E 023°41'0 0.0
2018-Jul-15 12:30N 70°40' E 023°41'0 0.0
2018-Jul-15 12:00N 70°40' E 023°41'0 0.0
2018-Jul-15 11:30N 70°40' E 023°41'0 0.0
2018-Jul-15 11:00N 70°40' E 023°41'0 0.0
2018-Jul-15 10:30N 70°40' E 023°41'0 0.0
2018-Jul-15 10:00N 70°40' E 023°41'0 0.0
2018-Jul-15 09:29N 70°40' E 023°41'0 0.0
2018-Jul-15 09:00N 70°40' E 023°41'0 0.0
2018-Jul-15 08:29N 70°40' E 023°41'0 0.0
2018-Jul-15 08:00N 70°40' E 023°41'0 0.0
2018-Jul-15 07:31N 70°40' E 023°41'0 0.0
2018-Jul-15 07:00N 70°40' E 023°41'0 0.0
2018-Jul-15 06:30N 70°40' E 023°41'0 0.0
2018-Jul-15 06:00N 70°40' E 023°41'0 0.0
2018-Jul-15 05:30N 70°40' E 023°41'0 0.0
2018-Jul-15 05:00N 70°40' E 023°41'0 0.0
2018-Jul-15 04:30N 70°40' E 023°41'0 0.0
2018-Jul-15 04:00N 70°40' E 023°41'0 0.0
2018-Jul-15 03:30N 70°40' E 023°41'0 0.0
2018-Jul-15 03:00N 70°40' E 023°41'0 0.0
2018-Jul-15 02:30N 70°40' E 023°41'0 0.0
2018-Jul-15 01:59N 70°40' E 023°41'0 0.0
2018-Jul-15 01:30N 70°40' E 023°41'0 0.0
2018-Jul-15 01:00N 70°40' E 023°41'0 0.0
2018-Jul-15 00:30N 70°40' E 023°41'0 0.0
2018-Jul-15 00:00N 70°40' E 023°41'0 0.0
2018-Jul-14 23:30N 70°40' E 023°41'0 0.0
2018-Jul-14 23:01N 70°40' E 023°41'0 0.0
2018-Jul-14 22:30N 70°40' E 023°41'0 0.0
2018-Jul-14 22:00N 70°40' E 023°41'0 0.0
2018-Jul-14 21:29N 70°40' E 023°41'0 0.0
2018-Jul-14 21:00N 70°40' E 023°41'0 0.0
2018-Jul-14 20:30N 70°40' E 023°41'0 0.0
2018-Jul-14 20:00N 70°40' E 023°41'0 0.0
2018-Jul-14 19:30N 70°40' E 023°41'0 0.0
2018-Jul-14 18:59N 70°40' E 023°41'0 0.0
2018-Jul-14 18:29N 70°40' E 023°41'0 0.0
2018-Jul-14 18:00N 70°40' E 023°41'0 0.0
2018-Jul-14 17:30N 70°40' E 023°41'0 0.0
2018-Jul-14 17:00N 70°40' E 023°41'0 0.0
2018-Jul-14 16:30N 70°40' E 023°41'0 0.0
2018-Jul-14 16:00N 70°40' E 023°41'0 0.0
2018-Jul-14 15:30N 70°40' E 023°41'0 0.0
2018-Jul-14 15:00N 70°40' E 023°41'0 0.0
2018-Jul-14 14:30N 70°40' E 023°41'8 7.7
2018-Jul-14 13:30N 70°32' E 023°41'5 9.4
2018-Jul-14 13:00N 70°30' E 023°54'5 9.3
2018-Jul-14 12:30N 70°34' E 024°03'1 1.1
2018-Jul-14 12:00N 70°34' E 024°04'1 2.2
2018-Jul-14 11:29N 70°35' E 024°07'510.2
2018-Jul-14 11:00N 70°40' E 024°05'510.4
2018-Jul-14 10:29N 70°44' E 023°54'510.8
2018-Jul-14 10:00N 70°47' E 023°41'510.8
2018-Jul-14 09:30N 70°50' E 023°28'4 9.0
2018-Jul-14 09:01N 70°52' E 023°15'510.0
2018-Jul-14 08:30N 70°49' E 023°02'610.6
2018-Jul-14 07:59N 70°46' E 022°47'5 9.6
2018-Jul-14 07:30N 70°43' E 022°40'3 5.8
2018-Jul-14 07:00N 70°40' E 022°38'0 0.0
2018-Jul-14 06:30N 70°40' E 022°38'2 4.0
2018-Jul-14 06:00N 70°42' E 022°40'510.0
2018-Jul-14 05:30N 70°44' E 022°26'5 9.8
2018-Jul-14 04:59N 70°43' E 022°11'510.6
2018-Jul-14 04:30N 70°41' E 021°56'610.8
2018-Jul-14 03:57N 70°37' E 021°44'510.7
2018-Jul-14 03:29N 70°33' E 021°33'510.9
2018-Jul-14 03:00N 70°30' E 021°21'510.9
2018-Jul-14 02:30N 70°26' E 021°10'611.1
2018-Jul-14 02:00N 70°22' E 020°58'611.0
2018-Jul-14 01:30N 70°18' E 020°46'611.2
2018-Jul-14 01:00N 70°14' E 020°34'511.0
2018-Jul-14 00:30N 70°10' E 020°23'510.7
2018-Jul-14 00:00N 70°06' E 020°14'510.6
2018-Jul-13 23:30N 70°02' E 020°04'510.7
2018-Jul-13 23:00N 69°57' E 019°56'510.6
2018-Jul-13 22:30N 69°53' E 019°48'5 9.9
2018-Jul-13 22:00N 69°50' E 019°36'510.8
2018-Jul-13 21:30N 69°48' E 019°22'510.8
2018-Jul-13 21:00N 69°45' E 019°08'611.3
2018-Jul-13 20:30N 69°42' E 018°55'510.5
2018-Jul-13 20:00N 69°37' E 018°52'611.1
2018-Jul-13 19:30N 69°33' E 018°40'611.8
2018-Jul-13 19:00N 69°31' E 018°24'510.8
2018-Jul-13 18:30N 69°28' E 018°10'510.0
2018-Jul-13 17:59N 69°24' E 018°06'5 9.8
2018-Jul-13 17:30N 69°19' E 017°60'5 9.8
2018-Jul-13 16:58N 69°14' E 017°58'4 8.3
2018-Jul-13 16:30N 69°10' E 017°57'510.7
2018-Jul-13 16:00N 69°08' E 017°44'510.7
2018-Jul-13 15:30N 69°06' E 017°30'510.6
2018-Jul-13 15:00N 69°02' E 017°19'1110.6
2018-Jul-13 14:00N 68°54' E 017°02'510.6
2018-Jul-13 13:30N 68°49' E 016°54'510.3
2018-Jul-13 12:59N 68°45' E 016°46'510.5
2018-Jul-13 12:30N 68°40' E 016°39'611.3
2018-Jul-13 11:59N 68°35' E 016°32'510.2
2018-Jul-13 11:30N 68°33' E 016°19'610.6
2018-Jul-13 10:54N 68°29' E 016°07'411.0
2018-Jul-13 10:30N 68°25' E 016°02'510.7
2018-Jul-13 10:00N 68°20' E 015°54'510.9
2018-Jul-13 09:31N 68°17' E 015°44'510.6
2018-Jul-13 09:00N 68°13' E 015°34'510.7
2018-Jul-13 08:30N 68°09' E 015°23'510.6
2018-Jul-13 08:00N 68°05' E 015°13'510.7
2018-Jul-13 07:30N 68°02' E 015°03'611.0
2018-Jul-13 06:59N 67°58' E 014°52'510.6
2018-Jul-13 06:30N 67°54' E 014°44'510.2
2018-Jul-13 05:59N 67°49' E 014°36'510.1
2018-Jul-13 05:28N 67°44' E 014°31'510.6
2018-Jul-13 05:00N 67°39' E 014°31'510.4
2018-Jul-13 04:29N 67°34' E 014°30'510.5
2018-Jul-13 04:01N 67°29' E 014°29'  
Track history (hours):
 
Tides and Currents Weather Stations Pressure Air Temp Water Temp Dewpoint Dewpoint Depression Visibility Wind Speed Wind Dir Waves Ship Positions

Scan Trans

Last reported at 2018-Jul-23 04:00 UTC. Time now 2018-Jul-23 04:06 UTC.
Position N 63°52' E 009°41'.

Length 52 m; draft 4 m.

Type: Ship. MMSI: 257228000.

Date/timePositionNaut miles runAvg speedWind from/ knotsBaromVisibWave heightAir tempDewpointWater temp
2018-Jul-23 04:00N 63°52' E 009°41'4 8.7
2018-Jul-23 03:29N 63°54' E 009°50'4 9.2
2018-Jul-23 03:00N 63°58' E 009°55'5 9.2
2018-Jul-23 02:30N 64°02' E 010°00'4 7.3
2018-Jul-23 02:00N 64°05' E 010°01'4 8.9
2018-Jul-23 01:30N 64°09' E 010°07'4 8.9
2018-Jul-23 01:00N 64°13' E 010°12'4 8.7
2018-Jul-23 00:30N 64°16' E 010°19'5 9.2
2018-Jul-23 00:00N 64°20' E 010°21'5 9.3
2018-Jul-22 23:30N 64°24' E 010°26'4 8.9
2018-Jul-22 23:00N 64°28' E 010°30'5 9.3
2018-Jul-22 22:30N 64°32' E 010°37'5 9.4
2018-Jul-22 22:00N 64°36' E 010°45'5 9.9
2018-Jul-22 21:30N 64°38' E 010°54'510.1
2018-Jul-22 21:00N 64°40' E 011°05'510.1
2018-Jul-22 20:30N 64°42' E 011°16'510.1
2018-Jul-22 20:00N 64°44' E 011°27'3 5.5
2018-Jul-22 19:30N 64°45' E 011°33'1 2.6
2018-Jul-22 19:00N 64°45' E 011°30'2 3.7
2018-Jul-22 18:30N 64°43' E 011°28'1 1.5
2018-Jul-22 18:00N 64°43' E 011°26'510.2
2018-Jul-22 17:29N 64°43' E 011°14'4 7.3
2018-Jul-22 17:00N 64°45' E 011°06'5 9.0
2018-Jul-22 16:30N 64°49' E 011°09'5 9.2
2018-Jul-22 16:00N 64°52' E 011°17'4 3.7
2018-Jul-22 15:00N 64°56' E 011°16'1 1.9
2018-Jul-22 14:30N 64°55' E 011°15'0 0.0
2018-Jul-22 14:00N 64°55' E 011°15'3 6.6
2018-Jul-22 13:30N 64°58' E 011°18'510.4
2018-Jul-22 13:00N 65°00' E 011°29'610.9
2018-Jul-22 12:30N 65°02' E 011°41'510.5
2018-Jul-22 12:00N 65°07' E 011°48'510.6
2018-Jul-22 11:30N 65°12' E 011°52'510.7
2018-Jul-22 11:00N 65°17' E 011°57'510.6
2018-Jul-22 10:30N 65°21' E 012°04'510.5
2018-Jul-22 10:00N 65°26' E 012°09'4 8.2
2018-Jul-22 09:29N 65°30' E 012°12'510.2
2018-Jul-22 09:00N 65°35' E 012°14'510.4
2018-Jul-22 08:30N 65°40' E 012°16'510.3
2018-Jul-22 08:00N 65°45' E 012°18'510.2
2018-Jul-22 07:29N 65°50' E 012°21'510.1
2018-Jul-22 07:00N 65°55' E 012°23'510.2
2018-Jul-22 06:30N 65°59' E 012°29'4 8.3
2018-Jul-22 06:00N 66°01' E 012°38'2 4.7
2018-Jul-22 05:29N 66°04' E 012°39'5 9.3
2018-Jul-22 04:59N 66°08' E 012°46'5 9.3
2018-Jul-22 04:30N 66°12' E 012°51'5 9.4
2018-Jul-22 04:00N 66°16' E 012°55'5 9.7
2018-Jul-22 03:30N 66°21' E 012°57'5 9.5
2018-Jul-22 03:00N 66°25' E 012°58'5 9.3
2018-Jul-22 02:30N 66°30' E 012°59'4 8.5
2018-Jul-22 02:00N 66°34' E 013°04'5 9.2
2018-Jul-22 01:30N 66°38' E 013°06'5 9.3
2018-Jul-22 01:00N 66°43' E 013°10'5 9.6
2018-Jul-22 00:30N 66°47' E 013°15'5 9.4
2018-Jul-22 00:00N 66°51' E 013°20'5 9.4
2018-Jul-21 23:30N 66°55' E 013°28'4 8.1
2018-Jul-21 23:01N 66°58' E 013°33'5 9.3
2018-Jul-21 22:30N 67°01' E 013°43'5 9.2
2018-Jul-21 22:00N 67°04' E 013°52'5 9.5
2018-Jul-21 21:30N 67°07' E 014°00'5 9.2
2018-Jul-21 21:01N 67°11' E 014°05'5 9.3
2018-Jul-21 20:31N 67°15' E 014°12'5 9.5
2018-Jul-21 20:01N 67°19' E 014°19'5 9.4
2018-Jul-21 19:31N 67°23' E 014°25'5 9.2
2018-Jul-21 19:00N 67°28' E 014°28'5 9.4
2018-Jul-21 18:30N 67°32' E 014°30'5 9.3
2018-Jul-21 18:00N 67°37' E 014°30'5 9.3
2018-Jul-21 17:30N 67°42' E 014°31'5 9.3
2018-Jul-21 17:00N 67°46' E 014°32'4 8.5
2018-Jul-21 16:30N 67°50' E 014°37'4 8.6
2018-Jul-21 16:00N 67°53' E 014°44'4 8.7
2018-Jul-21 15:30N 67°57' E 014°50'5 9.2
2018-Jul-21 14:59N 68°01' E 014°59'5 9.2
2018-Jul-21 14:29N 68°04' E 015°08'9 9.4
2018-Jul-21 13:29N 68°10' E 015°26'5 9.6
2018-Jul-21 13:00N 68°13' E 015°35'5 9.4
2018-Jul-21 12:30N 68°17' E 015°44'5 9.6
2018-Jul-21 12:00N 68°20' E 015°53'5 9.6
2018-Jul-21 11:30N 68°24' E 016°01'5 9.6
2018-Jul-21 11:00N 68°28' E 016°06'510.0
2018-Jul-21 10:30N 68°33' E 016°13'5 9.7
2018-Jul-21 10:00N 68°33' E 016°26'4 7.9
2018-Jul-21 09:30N 68°36' E 016°33'4 8.8
2018-Jul-21 09:00N 68°40' E 016°39'5 9.3
2018-Jul-21 08:30N 68°45' E 016°45'5 9.2
2018-Jul-21 08:00N 68°48' E 016°51'5 9.4
2018-Jul-21 07:31N 68°52' E 016°59'5 9.3
2018-Jul-21 07:00N 68°56' E 017°06'5 9.5
2018-Jul-21 06:30N 68°60' E 017°14'5 9.8
2018-Jul-21 06:00N 69°04' E 017°22'5 9.6
2018-Jul-21 05:30N 69°06' E 017°33'510.0
2018-Jul-21 05:01N 69°09' E 017°46'5 9.8
2018-Jul-21 04:30N 69°11' E 017°58'4 7.8
2018-Jul-21 04:00N 69°15' E 017°58'5 9.4
2018-Jul-21 03:30N 69°19' E 017°60'5 9.3
2018-Jul-21 02:59N 69°24' E 018°06'5 9.5
2018-Jul-21 02:30N 69°28' E 018°08'5 9.3
2018-Jul-21 02:00N 69°30' E 018°20'5 9.6
2018-Jul-21 01:30N 69°32' E 018°32'5 9.1
2018-Jul-21 00:59N 69°34' E 018°45'5 9.7
2018-Jul-21 00:30N 69°37' E 018°54'5 9.4
2018-Jul-21 00:00N 69°41' E 019°01'510.0
2018-Jul-20 23:29N 69°45' E 019°09'510.4
2018-Jul-20 23:01N 69°48' E 019°22'510.2
2018-Jul-20 22:30N 69°50' E 019°36'510.3
2018-Jul-20 22:00N 69°52' E 019°49'510.3
2018-Jul-20 21:30N 69°55' E 020°01'510.6
2018-Jul-20 21:00N 69°58' E 020°13'510.0
2018-Jul-20 20:30N 70°00' E 020°26'510.2
2018-Jul-20 20:00N 70°02' E 020°41'5 9.7
2018-Jul-20 19:30N 70°03' E 020°54'5 9.4
2018-Jul-20 19:00N 70°02' E 021°08'5 9.2
2018-Jul-20 18:30N 70°02' E 021°21'4 8.6
2018-Jul-20 18:00N 69°59' E 021°31'10 6.2
2018-Jul-20 16:21N 69°51' E 021°50'410.4
2018-Jul-20 15:59N 69°54' E 021°42'510.1
2018-Jul-20 15:31N 69°58' E 021°34'611.1
2018-Jul-20 15:00N 70°03' E 021°24'510.7
2018-Jul-20 14:30N 70°07' E 021°15'510.5
2018-Jul-20 14:00N 70°12' E 021°10'5 9.3
2018-Jul-20 13:30N 70°16' E 021°17'510.2
2018-Jul-20 12:59N 70°20' E 021°28'510.1
2018-Jul-20 12:30N 70°23' E 021°38'5 9.9
2018-Jul-20 12:00N 70°25' E 021°52'510.2
2018-Jul-20 11:29N 70°27' E 022°07'510.1
2018-Jul-20 11:00N 70°28' E 022°21'510.2
2018-Jul-20 10:29N 70°29' E 022°36'510.7
2018-Jul-20 10:00N 70°30' E 022°51'5 9.9
2018-Jul-20 09:31N 70°33' E 023°04'5 9.6
2018-Jul-20 08:59N 70°36' E 023°15'510.0
2018-Jul-20 08:30N 70°39' E 023°29'4 8.5
2018-Jul-20 07:59N 70°40' E 023°41'0 0.0
2018-Jul-20 07:29N 70°40' E 023°41'0 0.0
2018-Jul-20 06:59N 70°40' E 023°41'0 0.0
2018-Jul-20 06:29N 70°40' E 023°41'0 0.0
2018-Jul-20 05:59N 70°40' E 023°41'0 0.0
2018-Jul-20 05:29N 70°40' E 023°41'0 0.0
2018-Jul-20 04:59N 70°40' E 023°41'0 0.0
2018-Jul-20 04:29N 70°40' E 023°41'0 0.0
2018-Jul-20 03:59N 70°40' E 023°41'0 0.0
2018-Jul-20 03:29N 70°40' E 023°41'0 0.0
2018-Jul-20 02:59N 70°40' E 023°41'0 0.0
2018-Jul-20 02:29N 70°40' E 023°41'0 0.0
2018-Jul-20 01:59N 70°40' E 023°41'0 0.0
2018-Jul-20 01:29N 70°40' E 023°41'0 0.0
2018-Jul-20 00:59N 70°40' E 023°41'0 0.0
2018-Jul-20 00:29N 70°40' E 023°41'0 0.0
2018-Jul-19 23:56N 70°40' E 023°41'0 0.0
2018-Jul-19 23:29N 70°40' E 023°41'0 0.0
2018-Jul-19 22:59N 70°40' E 023°41'0 0.0
2018-Jul-19 22:29N 70°40' E 023°41'0 0.0
2018-Jul-19 21:59N 70°40' E 023°41'0 0.0
2018-Jul-19 21:29N 70°40' E 023°41'0 0.0
2018-Jul-19 20:59N 70°40' E 023°41'0 0.0
2018-Jul-19 20:29N 70°40' E 023°41'0 0.0
2018-Jul-19 19:56N 70°40' E 023°41'0 0.0
2018-Jul-19 19:29N 70°40' E 023°41'0 0.0
2018-Jul-19 18:59N 70°40' E 023°41'0 0.0
2018-Jul-19 18:29N 70°40' E 023°41'0 0.0
2018-Jul-19 17:59N 70°40' E 023°41'0 0.0
2018-Jul-19 17:29N 70°40' E 023°41'0 0.0
2018-Jul-19 16:59N 70°40' E 023°41'0 0.0
2018-Jul-19 16:29N 70°40' E 023°41'0 0.0
2018-Jul-19 15:59N 70°40' E 023°41'0 0.0
2018-Jul-19 15:29N 70°40' E 023°41'0 0.0
2018-Jul-19 14:59N 70°40' E 023°41'0 0.0
2018-Jul-19 13:59N 70°40' E 023°41'0 0.0
2018-Jul-19 13:29N 70°40' E 023°41'0 0.0
2018-Jul-19 12:59N 70°40' E 023°41'0 0.0
2018-Jul-19 12:29N 70°40' E 023°41'0 0.0
2018-Jul-19 11:59N 70°40' E 023°41'0 0.0
2018-Jul-19 11:29N 70°40' E 023°41'0 0.0
2018-Jul-19 10:59N 70°40' E 023°41'0 0.0
2018-Jul-19 10:29N 70°40' E 023°41'0 0.0
2018-Jul-19 09:59N 70°40' E 023°41'0 0.0
2018-Jul-19 09:29N 70°40' E 023°41'0 0.0
2018-Jul-19 08:59N 70°40' E 023°41'0 0.0
2018-Jul-19 08:29N 70°40' E 023°41'0 0.0
2018-Jul-19 07:59N 70°40' E 023°41'0 0.0
2018-Jul-19 07:29N 70°40' E 023°41'0 0.0
2018-Jul-19 06:59N 70°40' E 023°41'0 0.0
2018-Jul-19 06:29N 70°40' E 023°41'0 0.0
2018-Jul-19 05:59N 70°40' E 023°41'0 0.0
2018-Jul-19 05:29N 70°40' E 023°41'0 0.0
2018-Jul-19 04:59N 70°40' E 023°41'0 0.0
2018-Jul-19 04:29N 70°40' E 023°41'0 0.0
2018-Jul-19 03:59N 70°40' E 023°41'0 0.0
2018-Jul-19 03:29N 70°40' E 023°41'0 0.0
2018-Jul-19 02:59N 70°40' E 023°41'0 0.0
2018-Jul-19 02:29N 70°40' E 023°41'0 0.0
2018-Jul-19 01:59N 70°40' E 023°41'0 0.0
2018-Jul-19 01:29N 70°40' E 023°41'0 0.0
2018-Jul-19 00:59N 70°40' E 023°41'0 0.0
2018-Jul-19 00:29N 70°40' E 023°41'0 0.0
2018-Jul-18 23:59N 70°40' E 023°41'0 0.0
2018-Jul-18 23:28N 70°40' E 023°41'3 6.4
2018-Jul-18 23:00N 70°37' E 023°36'5 9.6
2018-Jul-18 22:30N 70°33' E 023°40'5 9.8
2018-Jul-18 22:00N 70°30' E 023°52'510.5
2018-Jul-18 21:29N 70°34' E 024°03'1 1.2
2018-Jul-18 21:00N 70°34' E 024°04'3 5.1
2018-Jul-18 20:31N 70°32' E 024°01'510.3
2018-Jul-18 20:00N 70°29' E 023°48'510.9
2018-Jul-18 19:30N 70°25' E 023°38'611.0
2018-Jul-18 19:00N 70°21' E 023°27'510.7
2018-Jul-18 18:30N 70°17' E 023°16'510.3
2018-Jul-18 18:00N 70°14' E 023°03'510.3
2018-Jul-18 17:30N 70°14' E 022°47'510.6
2018-Jul-18 17:01N 70°15' E 022°32'5 9.0
2018-Jul-18 16:30N 70°15' E 022°19'510.6
2018-Jul-18 16:00N 70°09' E 022°18'0 1.0
2018-Jul-18 15:30N 70°09' E 022°19'3 5.7
2018-Jul-18 15:01N 70°12' E 022°18'5 9.1
2018-Jul-18 14:30N 70°16' E 022°24'1110.7
2018-Jul-18 13:30N 70°13' E 022°55'4 7.9
2018-Jul-18 13:00N 70°09' E 022°56'1 1.7
2018-Jul-18 12:30N 70°08' E 022°54'3 5.5
2018-Jul-18 12:00N 70°08' E 023°02'510.5
2018-Jul-18 11:29N 70°03' E 023°07'5 4.9
2018-Jul-18 10:30N 69°59' E 023°15'2 3.8
2018-Jul-18 10:00N 69°59' E 023°20'0 0.0
2018-Jul-18 09:30N 69°59' E 023°20'0 0.0
2018-Jul-18 09:00N 69°59' E 023°20'0 0.0
2018-Jul-18 08:30N 69°59' E 023°20'0 0.0
2018-Jul-18 08:00N 69°59' E 023°20'0 0.0
2018-Jul-18 07:30N 69°59' E 023°20'0 0.0
2018-Jul-18 07:00N 69°59' E 023°20'0 0.0
2018-Jul-18 06:30N 69°59' E 023°20'0 0.0
2018-Jul-18 06:00N 69°59' E 023°20'0 0.0
2018-Jul-18 05:30N 69°59' E 023°20'0 0.0
2018-Jul-18 05:00N 69°59' E 023°20'0 0.0
2018-Jul-18 04:30N 69°59' E 023°20'0 0.0
2018-Jul-18 04:00N 69°59' E 023°20'0 0.0
2018-Jul-18 03:30N 69°59' E 023°20'0 0.0
2018-Jul-18 03:00N 69°59' E 023°20'0 0.0
2018-Jul-18 02:30N 69°59' E 023°20'0 0.0
2018-Jul-18 02:00N 69°59' E 023°20'0 0.0
2018-Jul-18 01:30N 69°59' E 023°20'0 0.0
2018-Jul-18 01:00N 69°59' E 023°20'0 0.0
2018-Jul-18 00:30N 69°59' E 023°20'0 0.0
2018-Jul-18 00:00N 69°59' E 023°20'0 0.0
2018-Jul-17 23:30N 69°59' E 023°20'0 0.0
2018-Jul-17 23:00N 69°59' E 023°20'0 0.0
2018-Jul-17 22:30N 69°59' E 023°20'0 0.0
2018-Jul-17 22:00N 69°59' E 023°20'0 0.0
2018-Jul-17 21:30N 69°59' E 023°20'0 0.0
2018-Jul-17 21:00N 69°59' E 023°20'0 0.0
2018-Jul-17 20:30N 69°59' E 023°20'0 0.0
2018-Jul-17 20:00N 69°59' E 023°20'0 0.0
2018-Jul-17 19:30N 69°59' E 023°20'0 0.0
2018-Jul-17 19:00N 69°59' E 023°20'0 0.0
2018-Jul-17 18:30N 69°59' E 023°20'0 0.0
2018-Jul-17 18:00N 69°59' E 023°20'0 0.0
2018-Jul-17 17:30N 69°59' E 023°20'0 0.0
2018-Jul-17 17:00N 69°59' E 023°20'0 0.0
2018-Jul-17 16:30N 69°59' E 023°20'0 0.0
2018-Jul-17 16:00N 69°59' E 023°20'0 0.0
2018-Jul-17 15:30N 69°59' E 023°20'0 0.0
2018-Jul-17 15:00N 69°59' E 023°20'0 0.0
2018-Jul-17 14:30N 69°59' E 023°20'0 0.0
2018-Jul-17 14:00N 69°59' E 023°20'0 0.0
2018-Jul-17 13:29N 69°59' E 023°20'0 0.0
2018-Jul-17 13:00N 69°59' E 023°20'0 0.0
2018-Jul-17 12:30N 69°59' E 023°20'0 0.0
2018-Jul-17 12:00N 69°59' E 023°20'0 0.0
2018-Jul-17 11:30N 69°59' E 023°20'0 0.0
2018-Jul-17 10:59N 69°59' E 023°20'0 0.0
2018-Jul-17 10:31N 69°59' E 023°20'0 0.0
2018-Jul-17 10:00N 69°59' E 023°20'0 0.0
2018-Jul-17 09:30N 69°59' E 023°20'0 0.0
2018-Jul-17 09:00N 69°59' E 023°20'0 0.0
2018-Jul-17 08:30N 69°59' E 023°20'0 0.0
2018-Jul-17 08:00N 69°59' E 023°20'0 0.0
2018-Jul-17 07:30N 69°59' E 023°20'0 0.0
2018-Jul-17 07:00N 69°59' E 023°20'0 0.0
2018-Jul-17 06:30N 69°59' E 023°20'0 0.0
2018-Jul-17 06:00N 69°59' E 023°20'0 0.3
2018-Jul-17 05:29N 69°59' E 023°20'0 0.0
2018-Jul-17 05:00N 69°59' E 023°20'0 0.0
2018-Jul-17 04:30N 69°59' E 023°20'0 0.0
2018-Jul-17 04:00N 69°59' E 023°20'0 0.0
2018-Jul-17 03:30N 69°59' E 023°20'0 0.0
2018-Jul-17 03:00N 69°59' E 023°20'0 0.0
2018-Jul-17 02:30N 69°59' E 023°20'0 0.0
2018-Jul-17 02:00N 69°59' E 023°20'0 0.0
2018-Jul-17 01:30N 69°59' E 023°20'0 0.0
2018-Jul-17 00:58N 69°59' E 023°20'0 0.0
2018-Jul-17 00:29N 69°59' E 023°20'0 0.0
2018-Jul-16 23:30N 69°59' E 023°20'0 0.0
2018-Jul-16 23:00N 69°59' E 023°20'0 0.0
2018-Jul-16 22:30N 69°59' E 023°20'0 0.0
2018-Jul-16 22:00N 69°59' E 023°20'0 0.0
2018-Jul-16 21:29N 69°59' E 023°20'0 0.0
2018-Jul-16 21:00N 69°59' E 023°20'0 0.0
2018-Jul-16 20:30N 69°59' E 023°20'0 0.0
2018-Jul-16 20:00N 69°59' E 023°20'0 0.0
2018-Jul-16 19:31N 69°59' E 023°20'3 5.2
2018-Jul-16 19:00N 69°59' E 023°12'3 5.7
2018-Jul-16 18:30N 69°57' E 023°06'0 0.0
2018-Jul-16 18:00N 69°57' E 023°06'0 0.0
2018-Jul-16 17:28N 69°57' E 023°06'0 0.0
2018-Jul-16 17:00N 69°57' E 023°06'0 0.0
2018-Jul-16 16:30N 69°57' E 023°06'0 0.0
2018-Jul-16 16:00N 69°57' E 023°06'0 0.0
2018-Jul-16 15:30N 69°57' E 023°06'0 0.0
2018-Jul-16 14:59N 69°57' E 023°06'0 0.0
2018-Jul-16 14:30N 69°57' E 023°06'0 0.0
2018-Jul-16 14:00N 69°57' E 023°06'4 7.5
2018-Jul-16 13:30N 70°00' E 023°09'511.0
2018-Jul-16 13:00N 70°06' E 023°06'510.6
2018-Jul-16 12:30N 70°11' E 023°04'510.5
2018-Jul-16 12:00N 70°16' E 023°03'5 9.8
2018-Jul-16 11:30N 70°21' E 023°05'0 0.0
2018-Jul-16 11:00N 70°21' E 023°05'4 7.6
2018-Jul-16 10:30N 70°17' E 023°03'5 9.9
2018-Jul-16 10:00N 70°14' E 023°15'3 6.2
2018-Jul-16 09:30N 70°14' E 023°24'2 4.3
2018-Jul-16 09:00N 70°14' E 023°18'4 7.5
2018-Jul-16 08:30N 70°18' E 023°20'510.4
2018-Jul-16 08:00N 70°22' E 023°30'611.3
2018-Jul-16 07:30N 70°26' E 023°40'510.3
2018-Jul-16 06:59N 70°30' E 023°52'510.7
2018-Jul-16 06:31N 70°34' E 024°03'0 0.1
2018-Jul-16 06:00N 70°34' E 024°03'5 9.3
2018-Jul-16 05:30N 70°30' E 023°53'5 9.5
2018-Jul-16 04:59N 70°32' E 023°40'5 9.6
2018-Jul-16 04:29N 70°37' E 023°36'3 6.7
2018-Jul-16 03:58N 70°40' E 023°41'0 0.0
2018-Jul-16 03:30N 70°40' E 023°41'0 0.0
2018-Jul-16 03:00N 70°40' E 023°41'0 0.0
2018-Jul-16 02:30N 70°40' E 023°41'0 0.0
2018-Jul-16 02:00N 70°40' E 023°41'0 0.0
2018-Jul-16 01:30N 70°40' E 023°41'0 0.0
2018-Jul-16 01:00N 70°40' E 023°41'0 0.0
2018-Jul-16 00:29N 70°40' E 023°41'0 0.0
2018-Jul-15 23:59N 70°40' E 023°41'0 0.0
2018-Jul-15 23:30N 70°40' E 023°41'0 0.0
2018-Jul-15 23:00N 70°40' E 023°41'0 0.0
2018-Jul-15 22:30N 70°40' E 023°41'0 0.0
2018-Jul-15 22:00N 70°40' E 023°41'0 0.0
2018-Jul-15 21:30N 70°40' E 023°41'0 0.0
2018-Jul-15 21:00N 70°40' E 023°41'0 0.0
2018-Jul-15 20:30N 70°40' E 023°41'0 0.0
2018-Jul-15 20:00N 70°40' E 023°41'0 0.0
2018-Jul-15 19:30N 70°40' E 023°41'0 0.0
2018-Jul-15 18:59N 70°40' E 023°41'0 0.0
2018-Jul-15 18:29N 70°40' E 023°41'0 0.0
2018-Jul-15 17:59N 70°40' E 023°41'0 0.0
2018-Jul-15 17:29N 70°40' E 023°41'0 0.0
2018-Jul-15 16:58N 70°40' E 023°41'0 0.0
2018-Jul-15 16:30N 70°40' E 023°41'0 0.0
2018-Jul-15 15:59N 70°40' E 023°41'0 0.0
2018-Jul-15 15:29N 70°40' E 023°41'0 0.0
2018-Jul-15 15:00N 70°40' E 023°41'0 0.0
2018-Jul-15 14:30N 70°40' E 023°41'0 0.0
2018-Jul-15 14:00N 70°40' E 023°41'0 0.0
2018-Jul-15 13:30N 70°40' E 023°41'0 0.0
2018-Jul-15 13:00N 70°40' E 023°41'0 0.0
2018-Jul-15 12:30N 70°40' E 023°41'0 0.0
2018-Jul-15 12:00N 70°40' E 023°41'0 0.0
2018-Jul-15 11:30N 70°40' E 023°41'0 0.0
2018-Jul-15 11:00N 70°40' E 023°41'0 0.0
2018-Jul-15 10:30N 70°40' E 023°41'0 0.0
2018-Jul-15 10:00N 70°40' E 023°41'0 0.0
2018-Jul-15 09:29N 70°40' E 023°41'0 0.0
2018-Jul-15 09:00N 70°40' E 023°41'0 0.0
2018-Jul-15 08:29N 70°40' E 023°41'0 0.0
2018-Jul-15 08:00N 70°40' E 023°41'0 0.0
2018-Jul-15 07:31N 70°40' E 023°41'0 0.0
2018-Jul-15 07:00N 70°40' E 023°41'0 0.0
2018-Jul-15 06:30N 70°40' E 023°41'0 0.0
2018-Jul-15 06:00N 70°40' E 023°41'0 0.0
2018-Jul-15 05:30N 70°40' E 023°41'0 0.0
2018-Jul-15 05:00N 70°40' E 023°41'0 0.0
2018-Jul-15 04:30N 70°40' E 023°41'0 0.0
2018-Jul-15 04:00N 70°40' E 023°41'0 0.0
2018-Jul-15 03:30N 70°40' E 023°41'0 0.0
2018-Jul-15 03:00N 70°40' E 023°41'0 0.0
2018-Jul-15 02:30N 70°40' E 023°41'0 0.0
2018-Jul-15 01:59N 70°40' E 023°41'0 0.0
2018-Jul-15 01:30N 70°40' E 023°41'0 0.0
2018-Jul-15 01:00N 70°40' E 023°41'0 0.0
2018-Jul-15 00:30N 70°40' E 023°41'0 0.0
2018-Jul-15 00:00N 70°40' E 023°41'0 0.0
2018-Jul-14 23:30N 70°40' E 023°41'0 0.0
2018-Jul-14 23:01N 70°40' E 023°41'0 0.0
2018-Jul-14 22:30N 70°40' E 023°41'0 0.0
2018-Jul-14 22:00N 70°40' E 023°41'0 0.0
2018-Jul-14 21:29N 70°40' E 023°41'0 0.0
2018-Jul-14 21:00N 70°40' E 023°41'0 0.0
2018-Jul-14 20:30N 70°40' E 023°41'0 0.0
2018-Jul-14 20:00N 70°40' E 023°41'0 0.0
2018-Jul-14 19:30N 70°40' E 023°41'0 0.0
2018-Jul-14 18:59N 70°40' E 023°41'0 0.0
2018-Jul-14 18:29N 70°40' E 023°41'0 0.0
2018-Jul-14 18:00N 70°40' E 023°41'0 0.0
2018-Jul-14 17:30N 70°40' E 023°41'0 0.0
2018-Jul-14 17:00N 70°40' E 023°41'0 0.0
2018-Jul-14 16:30N 70°40' E 023°41'0 0.0
2018-Jul-14 16:00N 70°40' E 023°41'0 0.0
2018-Jul-14 15:30N 70°40' E 023°41'0 0.0
2018-Jul-14 15:00N 70°40' E 023°41'0 0.0
2018-Jul-14 14:30N 70°40' E 023°41'8 7.7
2018-Jul-14 13:30N 70°32' E 023°41'5 9.4
2018-Jul-14 13:00N 70°30' E 023°54'5 9.3
2018-Jul-14 12:30N 70°34' E 024°03'1 1.1
2018-Jul-14 12:00N 70°34' E 024°04'1 2.2
2018-Jul-14 11:29N 70°35' E 024°07'510.2
2018-Jul-14 11:00N 70°40' E 024°05'510.4
2018-Jul-14 10:29N 70°44' E 023°54'510.8
2018-Jul-14 10:00N 70°47' E 023°41'510.8
2018-Jul-14 09:30N 70°50' E 023°28'4 9.0
2018-Jul-14 09:01N 70°52' E 023°15'510.0
2018-Jul-14 08:30N 70°49' E 023°02'610.6
2018-Jul-14 07:59N 70°46' E 022°47'5 9.6
2018-Jul-14 07:30N 70°43' E 022°40'3 5.8
2018-Jul-14 07:00N 70°40' E 022°38'0 0.0
2018-Jul-14 06:30N 70°40' E 022°38'2 4.0
2018-Jul-14 06:00N 70°42' E 022°40'510.0
2018-Jul-14 05:30N 70°44' E 022°26'5 9.8
2018-Jul-14 04:59N 70°43' E 022°11'510.6
2018-Jul-14 04:30N 70°41' E 021°56'610.8
2018-Jul-14 03:57N 70°37' E 021°44'510.7
2018-Jul-14 03:29N 70°33' E 021°33'510.9
2018-Jul-14 03:00N 70°30' E 021°21'510.9
2018-Jul-14 02:30N 70°26' E 021°10'611.1
2018-Jul-14 02:00N 70°22' E 020°58'611.0
2018-Jul-14 01:30N 70°18' E 020°46'611.2
2018-Jul-14 01:00N 70°14' E 020°34'511.0
2018-Jul-14 00:30N 70°10' E 020°23'510.7
2018-Jul-14 00:00N 70°06' E 020°14'510.6
2018-Jul-13 23:30N 70°02' E 020°04'510.7
2018-Jul-13 23:00N 69°57' E 019°56'510.6
2018-Jul-13 22:30N 69°53' E 019°48'5 9.9
2018-Jul-13 22:00N 69°50' E 019°36'510.8
2018-Jul-13 21:30N 69°48' E 019°22'510.8
2018-Jul-13 21:00N 69°45' E 019°08'611.3
2018-Jul-13 20:30N 69°42' E 018°55'510.5
2018-Jul-13 20:00N 69°37' E 018°52'611.1
2018-Jul-13 19:30N 69°33' E 018°40'611.8
2018-Jul-13 19:00N 69°31' E 018°24'510.8
2018-Jul-13 18:30N 69°28' E 018°10'510.0
2018-Jul-13 17:59N 69°24' E 018°06'5 9.8
2018-Jul-13 17:30N 69°19' E 017°60'5 9.8
2018-Jul-13 16:58N 69°14' E 017°58'4 8.3
2018-Jul-13 16:30N 69°10' E 017°57'510.7
2018-Jul-13 16:00N 69°08' E 017°44'510.7
2018-Jul-13 15:30N 69°06' E 017°30'510.6
2018-Jul-13 15:00N 69°02' E 017°19'1110.6
2018-Jul-13 14:00N 68°54' E 017°02'510.6
2018-Jul-13 13:30N 68°49' E 016°54'510.3
2018-Jul-13 12:59N 68°45' E 016°46'510.5
2018-Jul-13 12:30N 68°40' E 016°39'611.3
2018-Jul-13 11:59N 68°35' E 016°32'510.2
2018-Jul-13 11:30N 68°33' E 016°19'610.6
2018-Jul-13 10:54N 68°29' E 016°07'411.0
2018-Jul-13 10:30N 68°25' E 016°02'510.7
2018-Jul-13 10:00N 68°20' E 015°54'510.9
2018-Jul-13 09:31N 68°17' E 015°44'510.6
2018-Jul-13 09:00N 68°13' E 015°34'510.7
2018-Jul-13 08:30N 68°09' E 015°23'510.6
2018-Jul-13 08:00N 68°05' E 015°13'510.7
2018-Jul-13 07:30N 68°02' E 015°03'611.0
2018-Jul-13 06:59N 67°58' E 014°52'510.6
2018-Jul-13 06:30N 67°54' E 014°44'510.2
2018-Jul-13 05:59N 67°49' E 014°36'510.1
2018-Jul-13 05:28N 67°44' E 014°31'510.6
2018-Jul-13 05:00N 67°39' E 014°31'510.4
2018-Jul-13 04:29N 67°34' E 014°30'510.5
2018-Jul-13 04:01N 67°29' E 014°29'  

Dump ship's entire track history